Time;durP1;ratioP1;P1;durP2;ratioP2;P2;SDS_P1;SDS_P2;PMS_P1;PMS_P2;Temp;Humidity;BMP_temperature;BMP_pressure;BME280_temperature;BME280_humidity;BME280_pressure;Samples;Min_cycle;Max_cycle;Signal;HPM_P1;HPM_P2
2021/05/08 00:02:07;;;;;;;0.70;0.70;;;16.20;79.00;;;;;;4899270;29;20503;-75
2021/05/08 00:04:33;;;;;;;2.15;0.95;;;16.10;79.30;;;;;;4916135;29;20184;-75
2021/05/08 00:06:59;;;;;;;0.50;0.50;;;16.00;79.20;;;;;;4916112;29;20103;-75
2021/05/08 00:09:26;;;;;;;1.67;0.68;;;16.00;79.30;;;;;;4898880;29;20028;-75
2021/05/08 00:11:55;;;;;;;1.73;0.93;;;16.00;79.00;;;;;;4915941;29;20032;-75
2021/05/08 00:14:25;;;;;;;1.27;0.63;;;16.00;76.00;;;;;;4915779;29;20035;-75
2021/05/08 00:16:52;;;;;;;1.05;0.65;;;15.90;78.30;;;;;;4898691;29;20050;-75
2021/05/08 00:19:18;;;;;;;1.13;0.70;;;15.90;79.40;;;;;;4915875;29;20036;-75
2021/05/08 00:21:45;;;;;;;3.17;1.00;;;15.90;79.10;;;;;;4898806;29;20028;-75
2021/05/08 00:24:11;;;;;;;0.85;0.70;;;15.90;79.20;;;;;;4915746;29;20420;-75
2021/05/08 00:26:37;;;;;;;0.65;0.65;;;16.00;78.70;;;;;;4915656;29;20127;-75
2021/05/08 00:29:03;;;;;;;0.57;0.57;;;16.00;78.10;;;;;;4915753;29;20516;-75
2021/05/08 00:31:29;;;;;;;2.83;0.70;;;15.90;75.40;;;;;;4915557;29;20028;-75
2021/05/08 00:33:54;;;;;;;0.68;0.68;;;15.90;76.90;;;;;;4898485;29;20380;-75
2021/05/08 00:36:20;;;;;;;0.68;0.68;;;15.80;78.30;;;;;;4915846;29;20048;-75
2021/05/08 00:38:46;;;;;;;0.60;0.60;;;15.80;78.80;;;;;;4898443;29;20057;-75
2021/05/08 00:41:12;;;;;;;0.65;0.60;;;15.80;79.10;;;;;;4915501;29;20020;-75
2021/05/08 00:43:37;;;;;;;0.50;0.50;;;15.80;79.10;;;;;;4915491;29;20024;-75
2021/05/08 00:46:03;;;;;;;0.40;0.40;;;15.70;78.20;;;;;;4915453;29;20061;-75
2021/05/08 00:48:30;;;;;;;0.63;0.63;;;15.80;78.00;;;;;;4898191;29;20067;-75
2021/05/08 00:50:57;;;;;;;0.60;0.60;;;15.80;78.40;;;;;;4915555;29;20039;-76
2021/05/08 00:53:23;;;;;;;0.40;0.40;;;15.70;78.00;;;;;;4915210;29;20035;-75
2021/05/08 00:55:50;;;;;;;1.08;0.50;;;15.70;76.70;;;;;;4915311;29;20021;-75
2021/05/08 00:58:16;;;;;;;0.70;0.45;;;15.70;77.60;;;;;;4915329;29;20103;-75
2021/05/08 01:00:41;;;;;;;1.70;0.40;;;15.60;76.90;;;;;;4915269;29;20111;-76
2021/05/08 01:03:08;;;;;;;0.70;0.50;;;15.50;77.20;;;;;;4898125;29;20028;-75
2021/05/08 01:05:34;;;;;;;0.38;0.38;;;15.50;77.20;;;;;;4917398;29;20416;-75
2021/05/08 01:08:04;;;;;;;0.45;0.45;;;15.50;76.60;;;;;;4915319;29;20532;-75
2021/05/08 01:10:31;;;;;;;1.45;0.80;;;15.40;75.50;;;;;;4898174;29;20024;-75
2021/05/08 01:12:58;;;;;;;1.05;0.40;;;15.40;76.00;;;;;;4915028;29;20192;-76
2021/05/08 01:15:24;;;;;;;0.60;0.60;;;15.40;75.70;;;;;;4915275;29;20108;-75
2021/05/08 01:17:50;;;;;;;0.88;0.50;;;15.30;75.90;;;;;;4915054;29;20068;-75
2021/05/08 01:20:17;;;;;;;0.50;0.50;;;15.20;77.40;;;;;;4898144;29;20393;-75
2021/05/08 01:22:43;;;;;;;0.68;0.50;;;15.20;77.50;;;;;;4918274;29;20103;-75
2021/05/08 01:25:15;;;;;;;0.85;0.50;;;15.30;77.10;;;;;;4901974;29;20032;-75
2021/05/08 01:27:50;;;;;;;0.40;0.40;;;15.20;75.30;;;;;;4919040;29;20476;-75
2021/05/08 01:30:18;;;;;;;0.50;0.50;;;15.20;75.50;;;;;;4901927;29;20032;-75
2021/05/08 01:32:44;;;;;;;1.73;0.40;;;15.10;76.00;;;;;;4918923;29;20381;-75
2021/05/08 01:35:10;;;;;;;0.45;0.45;;;15.20;76.70;;;;;;4918671;29;20035;-75
2021/05/08 01:37:37;;;;;;;1.27;0.50;;;15.00;72.50;;;;;;4901564;29;20032;-75
2021/05/08 01:40:11;;;;;;;0.50;0.50;;;14.90;71.80;;;;;;4918708;29;20027;-75
2021/05/08 01:42:37;;;;;;;0.40;0.40;;;14.90;72.90;;;;;;4901591;29;20058;-75
2021/05/08 01:45:16;;;;;;;0.43;0.28;;;14.80;72.00;;;;;;4901787;29;20039;-75
2021/05/08 01:47:43;;;;;;;0.28;0.28;;;14.80;72.40;;;;;;4918368;29;20492;-75
2021/05/08 01:50:11;;;;;;;0.57;0.30;;;14.70;74.10;;;;;;4918420;29;20040;-75
2021/05/08 01:52:38;;;;;;;0.38;0.38;;;14.80;74.00;;;;;;4918586;29;20032;-75
2021/05/08 01:55:10;;;;;;;0.55;0.38;;;14.80;72.40;;;;;;4901420;29;20039;-75
2021/05/08 01:57:44;;;;;;;3.13;0.45;;;14.80;73.20;;;;;;4918280;29;20028;-75
2021/05/08 02:00:32;;;;;;;1.08;0.30;;;14.70;71.60;;;;;;4918431;29;20028;-75
2021/05/08 02:02:58;;;;;;;0.32;0.32;;;14.60;73.80;;;;;;4918253;29;20021;-75
2021/05/08 02:05:28;;;;;;;2.00;0.60;;;14.60;74.00;;;;;;4918210;29;20032;-75
2021/05/08 02:07:55;;;;;;;0.30;0.30;;;14.60;73.40;;;;;;4918380;29;20151;-75
2021/05/08 02:10:21;;;;;;;0.35;0.30;;;14.60;72.90;;;;;;4901002;29;20165;-75
2021/05/08 02:12:47;;;;;;;0.50;0.50;;;14.50;72.90;;;;;;4901189;29;20119;-75
2021/05/08 02:15:18;;;;;;;2.63;0.40;;;14.50;73.60;;;;;;4917936;29;20169;-75
2021/05/08 02:17:44;;;;;;;0.30;0.30;;;14.40;74.90;;;;;;4917929;29;20508;-75
2021/05/08 02:20:26;;;;;;;0.30;0.30;;;14.40;74.90;;;;;;4917758;29;20032;-75
2021/05/08 02:23:00;;;;;;;0.22;0.22;;;14.40;74.60;;;;;;4917884;29;20020;-75
2021/05/08 02:25:26;;;;;;;0.32;0.32;;;14.30;75.10;;;;;;4917804;29;20035;-75
2021/05/08 02:27:53;;;;;;;0.38;0.38;;;14.30;75.10;;;;;;4900775;29;20071;-75
2021/05/08 02:30:33;;;;;;;0.40;0.40;;;14.30;75.30;;;;;;4917918;29;20025;-75
2021/05/08 02:32:59;;;;;;;0.30;0.30;;;14.20;75.60;;;;;;4917514;29;20024;-75
2021/05/08 02:35:26;;;;;;;0.47;0.47;;;14.20;76.00;;;;;;4900819;29;20119;-75
2021/05/08 02:37:53;;;;;;;0.52;0.50;;;14.10;76.50;;;;;;4917580;29;20024;-75
2021/05/08 02:40:25;;;;;;;0.50;0.50;;;14.20;76.20;;;;;;4917573;29;20025;-75
2021/05/08 02:42:51;;;;;;;0.75;0.40;;;14.10;75.80;;;;;;4917459;29;20087;-75
2021/05/08 02:45:18;;;;;;;0.40;0.40;;;14.10;75.80;;;;;;4917475;29;20111;-75
2021/05/08 02:47:46;;;;;;;0.22;0.22;;;14.00;77.00;;;;;;4917560;29;20424;-75
2021/05/08 02:50:13;;;;;;;0.20;0.20;;;13.80;76.80;;;;;;4917641;29;20038;-75
2021/05/08 02:52:39;;;;;;;0.43;0.30;;;13.80;77.00;;;;;;4917332;29;20039;-76
2021/05/08 02:55:06;;;;;;;0.30;0.30;;;13.80;74.70;;;;;;4900247;29;20043;-75
2021/05/08 02:57:32;;;;;;;0.75;0.40;;;13.80;76.30;;;;;;4900345;29;20024;-75
2021/05/08 02:59:58;;;;;;;0.28;0.28;;;13.70;77.20;;;;;;4917349;29;20038;-75
2021/05/08 03:02:24;;;;;;;0.30;0.30;;;13.70;77.50;;;;;;4917284;29;20024;-75
2021/05/08 03:04:49;;;;;;;0.30;0.30;;;13.70;77.50;;;;;;4900215;29;20036;-75
2021/05/08 03:07:15;;;;;;;0.20;0.20;;;13.70;77.70;;;;;;4917026;29;20178;-75
2021/05/08 03:09:42;;;;;;;0.82;0.40;;;13.70;76.20;;;;;;4899987;29;20087;-75
2021/05/08 03:12:08;;;;;;;0.30;0.30;;;13.80;77.50;;;;;;4900278;29;20446;-75
2021/05/08 03:14:34;;;;;;;0.30;0.20;;;13.70;78.20;;;;;;4902098;29;20028;-75
2021/05/08 03:17:00;;;;;;;0.20;0.20;;;13.60;75.70;;;;;;4899807;29;20579;-75
2021/05/08 03:19:26;;;;;;;0.30;0.30;;;13.60;77.40;;;;;;4917025;29;20030;-75
2021/05/08 03:21:51;;;;;;;1.02;0.38;;;13.60;77.60;;;;;;4899804;29;20039;-75
2021/05/08 03:24:17;;;;;;;0.30;0.30;;;13.60;77.40;;;;;;4916972;29;20028;-75
2021/05/08 03:26:43;;;;;;;2.75;0.30;;;13.60;76.20;;;;;;4916782;29;20519;-75
2021/05/08 03:29:09;;;;;;;0.30;0.30;;;13.60;76.20;;;;;;4899601;29;20036;-75
2021/05/08 03:31:35;;;;;;;0.32;0.32;;;13.60;76.10;;;;;;4916613;29;20075;-75
2021/05/08 03:34:01;;;;;;;0.73;0.35;;;13.60;77.10;;;;;;4899709;29;20081;-75
2021/05/08 03:36:27;;;;;;;0.30;0.30;;;13.70;77.40;;;;;;4916372;29;20021;-75
2021/05/08 03:38:53;;;;;;;0.30;0.30;;;13.60;77.40;;;;;;4916603;29;20043;-75
2021/05/08 03:41:18;;;;;;;0.47;0.30;;;13.60;77.70;;;;;;4899658;29;20472;-75
2021/05/08 03:43:44;;;;;;;0.40;0.40;;;13.60;77.80;;;;;;4916011;29;20055;-75
2021/05/08 03:46:10;;;;;;;0.40;0.40;;;13.50;78.00;;;;;;4916524;29;20039;-75
2021/05/08 03:48:36;;;;;;;0.52;0.40;;;13.50;78.20;;;;;;4916211;29;20039;-75
2021/05/08 03:51:02;;;;;;;0.50;0.50;;;13.40;78.60;;;;;;4899301;29;20039;-75
2021/05/08 03:53:28;;;;;;;0.30;0.30;;;13.40;79.00;;;;;;4916284;29;20029;-75
2021/05/08 03:55:53;;;;;;;0.30;0.30;;;13.30;79.00;;;;;;4916363;29;20480;-75
2021/05/08 03:58:31;;;;;;;0.30;0.30;;;13.30;79.10;;;;;;4898934;29;20079;-75
2021/05/08 04:00:57;;;;;;;0.32;0.32;;;13.30;78.50;;;;;;4899459;29;20020;-75
2021/05/08 04:03:24;;;;;;;0.20;0.20;;;13.20;77.90;;;;;;4899010;29;20118;-75
2021/05/08 04:05:51;;;;;;;0.40;0.40;;;13.10;78.60;;;;;;4899168;29;20083;-75
2021/05/08 04:08:17;;;;;;;0.45;0.45;;;13.20;78.50;;;;;;4916166;29;20028;-75
2021/05/08 04:10:47;;;;;;;0.20;0.20;;;13.20;79.00;;;;;;4915880;29;20047;-75
2021/05/08 04:13:14;;;;;;;0.30;0.30;;;13.20;78.50;;;;;;4915848;29;20111;-75
2021/05/08 04:15:40;;;;;;;0.30;0.30;;;13.10;78.60;;;;;;4915969;29;20020;-75
2021/05/08 04:18:05;;;;;;;0.40;0.25;;;13.10;78.70;;;;;;4915679;29;20058;-75
2021/05/08 04:20:31;;;;;;;0.30;0.30;;;13.00;79.00;;;;;;4915825;29;20119;-75
2021/05/08 04:22:57;;;;;;;0.28;0.28;;;13.00;78.70;;;;;;4915841;29;20039;-75
2021/05/08 04:25:23;;;;;;;0.57;0.30;;;12.90;79.00;;;;;;4915896;29;20024;-75
2021/05/08 04:27:48;;;;;;;0.47;0.30;;;12.80;79.10;;;;;;4915397;29;20047;-75
2021/05/08 04:30:15;;;;;;;0.35;0.35;;;12.70;79.40;;;;;;4915745;29;20035;-75
2021/05/08 04:32:40;;;;;;;0.30;0.30;;;12.70;79.00;;;;;;4915767;29;20027;-75
2021/05/08 04:35:07;;;;;;;0.32;0.32;;;12.70;78.30;;;;;;4898532;29;20032;-75
2021/05/08 04:37:32;;;;;;;0.85;0.38;;;12.70;78.30;;;;;;4898574;29;20071;-75
2021/05/08 04:39:58;;;;;;;0.50;0.50;;;12.70;77.70;;;;;;4915676;29;20028;-75
2021/05/08 04:42:24;;;;;;;0.40;0.40;;;12.80;78.10;;;;;;4915527;29;20028;-75
2021/05/08 04:44:49;;;;;;;0.47;0.47;;;12.80;78.20;;;;;;4915526;29;20072;-75
2021/05/08 04:47:16;;;;;;;0.40;0.40;;;12.70;77.80;;;;;;4898575;29;20043;-75
2021/05/08 04:49:42;;;;;;;1.45;0.40;;;12.80;77.80;;;;;;4915204;29;20028;-75
2021/05/08 04:52:08;;;;;;;0.40;0.40;;;12.80;77.40;;;;;;4915415;29;20042;-75
2021/05/08 04:54:33;;;;;;;0.40;0.40;;;12.90;78.00;;;;;;4915617;29;20020;-75
2021/05/08 04:56:59;;;;;;;0.30;0.30;;;12.80;78.30;;;;;;4914464;29;20020;-75
2021/05/08 04:59:24;;;;;;;0.40;0.40;;;12.80;78.50;;;;;;4915367;29;20024;-75
2021/05/08 05:01:50;;;;;;;0.50;0.50;;;12.80;78.80;;;;;;4915156;29;20035;-75
2021/05/08 05:04:16;;;;;;;0.40;0.40;;;12.90;78.90;;;;;;4915215;29;20024;-75
2021/05/08 05:06:41;;;;;;;0.60;0.52;;;12.90;78.70;;;;;;4915352;29;20106;-75
2021/05/08 05:09:07;;;;;;;0.40;0.40;;;12.80;77.90;;;;;;4915257;29;20028;-75
2021/05/08 05:11:33;;;;;;;0.40;0.40;;;12.80;78.50;;;;;;4916852;29;20076;-75
2021/05/08 05:13:59;;;;;;;0.55;0.40;;;13.00;77.60;;;;;;4934329;29;20039;-75
2021/05/08 05:16:25;;;;;;;0.60;0.60;;;13.10;77.10;;;;;;4916175;29;20024;-75
2021/05/08 05:18:51;;;;;;;0.30;0.30;;;13.10;75.40;;;;;;4898152;29;20024;-75
2021/05/08 05:21:17;;;;;;;0.65;0.65;;;13.20;75.00;;;;;;4898305;29;20226;-75
2021/05/08 05:23:42;;;;;;;0.40;0.40;;;13.40;74.40;;;;;;4898033;29;20028;-75
2021/05/08 05:26:08;;;;;;;0.55;0.40;;;13.40;74.20;;;;;;4898080;29;20036;-75
2021/05/08 05:28:34;;;;;;;0.40;0.40;;;13.50;74.40;;;;;;4900008;29;20481;-75
2021/05/08 05:31:00;;;;;;;1.67;0.43;;;13.60;74.90;;;;;;4879308;29;20489;-75
2021/05/08 05:33:26;;;;;;;0.55;0.55;;;13.60;75.00;;;;;;4896136;29;20123;-75
2021/05/08 05:35:56;;;;;;;0.88;0.70;;;13.60;75.30;;;;;;4896395;29;20036;-75
2021/05/08 05:38:23;;;;;;;0.50;0.50;;;13.60;74.80;;;;;;4896240;29;20393;-75
2021/05/08 05:40:52;;;;;;;1.88;0.40;;;13.60;75.50;;;;;;4896108;29;20025;-75
2021/05/08 05:43:18;;;;;;;0.57;0.52;;;13.60;76.00;;;;;;4895874;29;20048;-75
2021/05/08 05:45:44;;;;;;;6.82;0.45;;;13.70;75.90;;;;;;4896161;29;20029;-76
2021/05/08 05:48:10;;;;;;;0.70;0.70;;;13.80;75.80;;;;;;4896115;29;20389;-75
2021/05/08 05:50:40;;;;;;;0.60;0.60;;;13.80;75.50;;;;;;4896013;29;20450;-75
2021/05/08 05:53:06;;;;;;;2.35;0.60;;;13.90;75.70;;;;;;4895796;29;20614;-75
2021/05/08 05:55:33;;;;;;;0.82;0.70;;;13.90;75.20;;;;;;4896097;29;20076;-75
2021/05/08 05:57:58;;;;;;;0.50;0.50;;;13.90;76.00;;;;;;4895672;29;20104;-75
2021/05/08 06:00:24;;;;;;;2.22;1.23;;;14.00;76.10;;;;;;4895937;29;20085;-75
2021/05/08 06:02:50;;;;;;;0.90;0.90;;;14.00;76.10;;;;;;4879725;29;20028;-76
2021/05/08 06:05:16;;;;;;;0.80;0.80;;;14.10;76.30;;;;;;4895951;29;20489;-75
2021/05/08 06:07:42;;;;;;;0.82;0.73;;;14.10;76.10;;;;;;4896997;29;20029;-75
2021/05/08 06:10:10;;;;;;;4.10;0.55;;;14.20;75.70;;;;;;4882713;29;20438;-75
2021/05/08 06:12:37;;;;;;;0.60;0.60;;;14.30;77.20;;;;;;4899162;29;20059;-75
2021/05/08 06:15:04;;;;;;;1.10;0.60;;;14.40;77.50;;;;;;4899261;29;20032;-75
2021/05/08 06:17:30;;;;;;;0.65;0.60;;;14.40;77.20;;;;;;4907957;29;20551;-75
2021/05/08 06:19:55;;;;;;;0.50;0.47;;;14.50;75.60;;;;;;4901151;29;20025;-75
2021/05/08 06:22:21;;;;;;;0.57;0.50;;;14.60;75.40;;;;;;4919004;29;20043;-75
2021/05/08 06:24:47;;;;;;;1.10;0.60;;;14.70;78.40;;;;;;4937992;29;20027;-75
2021/05/08 06:27:12;;;;;;;0.60;0.32;;;14.70;76.60;;;;;;4929275;29;20063;-75
2021/05/08 06:29:38;;;;;;;0.55;0.50;;;14.80;74.00;;;;;;4901630;29;20062;-76
2021/05/08 06:32:04;;;;;;;0.40;0.40;;;14.90;71.70;;;;;;4918937;29;20056;-76
2021/05/08 06:34:31;;;;;;;0.32;0.32;;;14.90;72.80;;;;;;4918698;29;20032;-75
2021/05/08 06:37:01;;;;;;;1.25;0.20;;;15.00;73.40;;;;;;4918797;29;20104;-75
2021/05/08 06:39:28;;;;;;;0.30;0.30;;;15.20;71.60;;;;;;4901843;29;20028;-75
2021/05/08 06:41:53;;;;;;;0.43;0.38;;;15.20;68.50;;;;;;4901777;29;20032;-76
2021/05/08 06:44:19;;;;;;;1.20;0.40;;;15.30;69.00;;;;;;4918199;29;20517;-76
2021/05/08 06:46:45;;;;;;;1.50;0.30;;;15.40;70.90;;;;;;4901707;29;20613;-76
2021/05/08 06:49:11;;;;;;;0.32;0.32;;;15.40;69.00;;;;;;4918827;29;20024;-76
2021/05/08 06:51:38;;;;;;;0.80;0.80;;;15.50;69.90;;;;;;4918703;29;20533;-75
2021/05/08 06:54:04;;;;;;;0.43;0.43;;;15.70;85.40;;;;;;4918601;29;20024;-76
2021/05/08 06:56:31;;;;;;;1.05;0.57;;;15.80;83.90;;;;;;4918232;29;20032;-75
2021/05/08 06:59:00;;;;;;;0.82;0.45;;;15.90;88.40;;;;;;4900438;29;20020;-75
2021/05/08 07:01:25;;;;;;;2.63;0.63;;;16.10;87.40;;;;;;4917622;29;20536;-77
2021/05/08 07:03:51;;;;;;;0.77;0.50;;;16.00;74.70;;;;;;4918467;29;20059;-79
2021/05/08 07:06:17;;;;;;;2.15;0.40;;;16.10;71.00;;;;;;4926057;29;20024;-78
2021/05/08 07:08:42;;;;;;;0.20;0.20;;;16.10;67.70;;;;;;4937097;29;20071;-79
2021/05/08 07:11:08;;;;;;;0.38;0.38;;;16.10;64.90;;;;;;4937132;29;20115;-79
2021/05/08 07:13:34;;;;;;;0.75;0.20;;;16.10;65.10;;;;;;4920351;29;20034;-78
2021/05/08 07:15:59;;;;;;;0.20;0.20;;;16.20;65.40;;;;;;4937354;29;20102;-74
2021/05/08 07:18:25;;;;;;;0.30;0.30;;;16.30;63.20;;;;;;4920043;29;20085;-74
2021/05/08 07:20:52;;;;;;;0.30;0.30;;;16.30;62.00;;;;;;4917554;29;20406;-74
2021/05/08 07:23:18;;;;;;;0.30;0.30;;;16.40;61.80;;;;;;4900554;29;20154;-74
2021/05/08 07:25:46;;;;;;;1.02;0.40;;;16.50;62.80;;;;;;4917717;29;20442;-74
2021/05/08 07:28:23;;;;;;;0.30;0.30;;;16.60;62.10;;;;;;4905171;29;20068;-74
2021/05/08 07:30:51;;;;;;;0.57;0.28;;;16.60;60.60;;;;;;4898782;29;20168;-74
2021/05/08 07:33:18;;;;;;;0.32;0.28;;;16.60;62.00;;;;;;4881568;29;20025;-73
2021/05/08 07:35:45;;;;;;;0.40;0.40;;;16.50;61.60;;;;;;4898435;29;20257;-74
2021/05/08 07:38:11;;;;;;;0.40;0.40;;;16.50;59.30;;;;;;4898612;29;20044;-74
2021/05/08 07:40:39;;;;;;;0.30;0.30;;;16.50;60.00;;;;;;4898525;29;20085;-74
2021/05/08 07:43:05;;;;;;;0.47;0.47;;;16.60;62.70;;;;;;4898627;29;20035;-74
2021/05/08 07:45:32;;;;;;;0.30;0.30;;;16.70;62.50;;;;;;4881841;29;20021;-74
2021/05/08 07:47:58;;;;;;;0.30;0.30;;;16.80;59.40;;;;;;4881930;29;20164;-74
2021/05/08 07:50:25;;;;;;;0.30;0.30;;;16.80;60.40;;;;;;4881551;29;20061;-74
2021/05/08 07:52:51;;;;;;;0.65;0.30;;;16.90;59.50;;;;;;4898903;29;20051;-73
2021/05/08 07:55:16;;;;;;;1.17;0.60;;;16.90;58.90;;;;;;4898434;29;20470;-74
2021/05/08 07:57:42;;;;;;;0.50;0.50;;;17.00;58.60;;;;;;4898518;29;20527;-74
2021/05/08 08:00:10;;;;;;;0.90;0.40;;;17.00;57.30;;;;;;4898432;29;20423;-74
2021/05/08 08:02:36;;;;;;;0.43;0.43;;;17.00;58.20;;;;;;4881477;29;20426;-74
2021/05/08 08:05:04;;;;;;;0.32;0.32;;;17.00;58.60;;;;;;4880388;29;20035;-74
2021/05/08 08:07:30;;;;;;;0.20;0.20;;;17.00;57.90;;;;;;4896243;29;20032;-74
2021/05/08 08:09:55;;;;;;;0.30;0.30;;;17.10;57.00;;;;;;4895981;29;20396;-74
2021/05/08 08:12:22;;;;;;;0.30;0.30;;;17.10;56.30;;;;;;4896703;29;20059;-74
2021/05/08 08:14:48;;;;;;;0.20;0.20;;;17.10;56.60;;;;;;4897027;29;20505;-74
2021/05/08 08:17:13;;;;;;;0.20;0.20;;;17.00;58.00;;;;;;4903471;29;20588;-74
2021/05/08 08:19:39;;;;;;;0.30;0.30;;;17.10;59.80;;;;;;4915601;29;20028;-74
2021/05/08 08:22:05;;;;;;;0.20;0.20;;;17.10;57.00;;;;;;4915895;29;20370;-74
2021/05/08 08:24:31;;;;;;;0.65;0.40;;;17.20;57.00;;;;;;4915738;29;20073;-73
2021/05/08 08:26:57;;;;;;;0.40;0.40;;;17.20;57.40;;;;;;4915608;29;20044;-73
2021/05/08 08:29:23;;;;;;;0.40;0.40;;;17.10;55.00;;;;;;4898807;29;20024;-74
2021/05/08 08:31:48;;;;;;;0.45;0.45;;;17.20;56.70;;;;;;4915549;29;20107;-74
2021/05/08 08:34:14;;;;;;;0.45;0.45;;;17.20;56.60;;;;;;4915334;29;20031;-74
2021/05/08 08:36:40;;;;;;;0.50;0.50;;;17.30;57.00;;;;;;4915722;29;20028;-74
2021/05/08 08:39:06;;;;;;;0.20;0.20;;;17.30;56.30;;;;;;4915402;29;20043;-73
2021/05/08 08:41:33;;;;;;;0.20;0.20;;;17.40;58.70;;;;;;4915456;29;20103;-74
2021/05/08 08:43:59;;;;;;;3.20;0.57;;;17.40;57.10;;;;;;4915615;29;20092;-73
2021/05/08 08:46:24;;;;;;;0.30;0.30;;;17.50;57.80;;;;;;4915413;29;20032;-74
2021/05/08 08:48:51;;;;;;;0.30;0.30;;;17.50;56.20;;;;;;4915281;29;20020;-73
2021/05/08 08:51:17;;;;;;;0.47;0.47;;;17.40;55.50;;;;;;4915580;29;20107;-73
2021/05/08 08:53:44;;;;;;;0.30;0.30;;;17.50;56.20;;;;;;4915409;29;20059;-74
2021/05/08 08:56:11;;;;;;;1.05;0.45;;;17.50;54.30;;;;;;4915229;29;20032;-73
2021/05/08 08:58:39;;;;;;;7.95;0.88;;;17.60;53.20;;;;;;4915198;29;20052;-73
2021/05/08 09:01:05;;;;;;;0.80;0.52;;;17.60;53.90;;;;;;4915410;29;20552;-73
2021/05/08 09:03:33;;;;;;;0.30;0.30;;;17.60;54.70;;;;;;4915084;29;20036;-74
2021/05/08 09:06:00;;;;;;;1.30;0.50;;;17.70;55.70;;;;;;4915084;29;20222;-74
2021/05/08 09:08:26;;;;;;;0.52;0.52;;;17.70;53.90;;;;;;4898249;29;20036;-74
2021/05/08 09:10:52;;;;;;;0.75;0.47;;;17.60;51.30;;;;;;4900637;29;20496;-73
2021/05/08 09:13:20;;;;;;;0.40;0.40;;;17.70;53.40;;;;;;4915061;29;20050;-74
2021/05/08 09:15:48;;;;;;;1.00;0.40;;;17.70;54.70;;;;;;4915068;29;20028;-74
2021/05/08 09:18:37;;;;;;;0.63;0.40;;;17.80;54.90;;;;;;4907258;29;20048;-74
2021/05/08 09:21:26;;;;;;;0.45;0.43;;;17.90;56.30;;;;;;4898005;29;20449;-74
2021/05/08 09:23:58;;;;;;;0.43;0.40;;;17.90;53.50;;;;;;4915082;29;20304;-74
2021/05/08 09:26:23;;;;;;;0.30;0.30;;;18.00;55.10;;;;;;4914817;29;20039;-74
2021/05/08 09:28:53;;;;;;;0.30;0.30;;;18.10;50.70;;;;;;4915004;29;20111;-73
2021/05/08 09:31:19;;;;;;;0.57;0.47;;;18.20;50.10;;;;;;4915033;29;20032;-74
2021/05/08 09:33:52;;;;;;;3.15;0.50;;;18.20;49.90;;;;;;4915070;29;20518;-73
2021/05/08 09:36:18;;;;;;;0.40;0.40;;;18.20;50.60;;;;;;4915069;29;20020;-73
2021/05/08 09:38:45;;;;;;;0.30;0.30;;;18.20;52.20;;;;;;4897740;29;20028;-73
2021/05/08 09:41:16;;;;;;;0.30;0.30;;;18.20;54.30;;;;;;4897961;29;20556;-74
2021/05/08 09:43:43;;;;;;;0.20;0.20;;;18.20;54.30;;;;;;4917850;29;20083;-73
2021/05/08 09:46:22;;;;;;;0.30;0.30;;;18.30;52.50;;;;;;4918785;29;20111;-73
2021/05/08 09:48:48;;;;;;;0.43;0.43;;;18.40;52.30;;;;;;4918588;29;20085;-73
2021/05/08 09:51:26;;;;;;;1.10;0.40;;;18.50;46.40;;;;;;4918535;29;20028;-73
2021/05/08 09:53:52;;;;;;;0.40;0.30;;;18.50;45.20;;;;;;4918450;29;20035;-73
2021/05/08 09:56:38;;;;;;;0.30;0.30;;;18.50;47.00;;;;;;4918426;29;20388;-73
2021/05/08 09:59:23;;;;;;;0.30;0.30;;;18.50;48.20;;;;;;4918250;29;20445;-73
2021/05/08 10:02:10;;;;;;;0.30;0.30;;;18.60;46.20;;;;;;4901294;29;20440;-73
2021/05/08 10:04:48;;;;;;;0.30;0.30;;;18.70;47.00;;;;;;4918018;29;20051;-73
2021/05/08 10:07:24;;;;;;;0.40;0.40;;;18.70;46.60;;;;;;4918077;29;20031;-73
2021/05/08 10:09:52;;;;;;;0.57;0.50;;;18.70;45.50;;;;;;4918315;29;20095;-73
2021/05/08 10:12:23;;;;;;;1.35;0.50;;;18.70;48.50;;;;;;4918254;29;20024;-73
2021/05/08 10:14:51;;;;;;;1.83;0.43;;;18.80;49.90;;;;;;4918056;29;20030;-73
2021/05/08 10:17:19;;;;;;;0.40;0.40;;;18.90;49.00;;;;;;4917807;29;20079;-73
2021/05/08 10:19:50;;;;;;;0.55;0.52;;;18.70;48.00;;;;;;4917955;29;20392;-73
2021/05/08 10:22:17;;;;;;;0.57;0.57;;;18.80;50.00;;;;;;4917815;29;20050;-74
2021/05/08 10:24:47;;;;;;;0.63;0.60;;;18.80;46.50;;;;;;4917864;29;20025;-74
2021/05/08 10:27:14;;;;;;;0.30;0.30;;;18.90;48.00;;;;;;4917640;29;20036;-73
2021/05/08 10:29:47;;;;;;;0.55;0.50;;;19.10;50.80;;;;;;4917920;29;20032;-73
2021/05/08 10:32:16;;;;;;;0.40;0.40;;;19.20;50.20;;;;;;4917990;29;20507;-73
2021/05/08 10:34:52;;;;;;;0.40;0.40;;;19.30;50.50;;;;;;4917815;29;20028;-73
2021/05/08 10:37:18;;;;;;;0.40;0.40;;;19.40;51.00;;;;;;4900615;29;20024;-73
2021/05/08 10:40:12;;;;;;;0.70;0.47;;;19.50;49.90;;;;;;4917825;29;20047;-73
2021/05/08 10:42:49;;;;;;;0.30;0.30;;;19.50;49.80;;;;;;4917469;29;20407;-74
2021/05/08 10:45:18;;;;;;;0.50;0.50;;;19.60;50.90;;;;;;4917548;29;20067;-73
2021/05/08 10:47:56;;;;;;;0.47;0.47;;;19.70;51.30;;;;;;4900368;29;20088;-73
2021/05/08 10:50:37;;;;;;;0.40;0.40;;;19.80;50.40;;;;;;4900666;29;20382;-73
2021/05/08 10:53:14;;;;;;;0.32;0.32;;;20.00;50.70;;;;;;4917205;29;20036;-75
2021/05/08 10:55:45;;;;;;;1.63;0.25;;;20.20;51.50;;;;;;4916681;29;20030;-74
2021/05/08 10:58:17;;;;;;;0.50;0.50;;;20.20;47.70;;;;;;4917178;29;20620;-73
2021/05/08 11:00:49;;;;;;;0.38;0.38;;;19.90;47.00;;;;;;4900349;29;20036;-73
2021/05/08 11:03:15;;;;;;;;;;;20.00;48.20;;;;;;4917581;29;20020;-73
2021/05/08 11:06:03;;;;;;;0.40;0.40;;;20.00;48.10;;;;;;4917444;29;19907;-73
2021/05/08 11:08:28;;;;;;;0.30;0.30;;;20.10;49.50;;;;;;4917104;29;20393;-73
2021/05/08 11:11:28;;;;;;;0.43;0.40;;;20.30;50.60;;;;;;4917006;29;20032;-73
2021/05/08 11:14:01;;;;;;;0.47;0.40;;;20.30;49.40;;;;;;4884288;29;20032;-73
2021/05/08 11:16:33;;;;;;;0.30;0.30;;;20.30;48.60;;;;;;4916091;29;20484;-73
2021/05/08 11:19:19;;;;;;;0.40;0.40;;;20.40;48.00;;;;;;4897959;29;20088;-74
2021/05/08 11:21:45;;;;;;;0.82;0.50;;;20.30;46.70;;;;;;4898146;29;20028;-73
2021/05/08 11:24:11;;;;;;;0.68;0.50;;;20.30;47.80;;;;;;4881074;29;20036;-73
2021/05/08 11:26:45;;;;;;;0.35;0.35;;;20.50;51.20;;;;;;4898133;29;20165;-74
2021/05/08 11:29:23;;;;;;;0.43;0.43;;;20.70;50.60;;;;;;4879061;29;20131;-73
2021/05/08 11:31:51;;;;;;;0.50;0.50;;;20.70;50.60;;;;;;4879145;29;20439;-73
2021/05/08 11:34:19;;;;;;;2.30;0.30;;;20.70;48.50;;;;;;4862376;29;20505;-73
2021/05/08 11:36:53;;;;;;;0.50;0.50;;;20.80;50.90;;;;;;4862341;29;20029;-73
2021/05/08 11:39:24;;;;;;;0.50;0.50;;;20.60;49.10;;;;;;4878841;29;20486;-73
2021/05/08 11:41:53;;;;;;;0.52;0.50;;;20.30;49.40;;;;;;4878901;29;20017;-73
2021/05/08 11:44:32;;;;;;;0.80;0.80;;;20.50;50.70;;;;;;4878951;29;20063;-73
2021/05/08 11:47:03;;;;;;;2.03;0.60;;;20.60;50.50;;;;;;4878929;29;20111;-74
2021/05/08 11:49:35;;;;;;;0.40;0.40;;;20.80;50.60;;;;;;4879436;29;20114;-74
2021/05/08 11:52:06;;;;;;;0.70;0.70;;;20.70;47.10;;;;;;4879768;29;20029;-73
2021/05/08 11:54:42;;;;;;;0.77;0.77;;;20.90;49.80;;;;;;4879745;29;20040;-73
2021/05/08 11:57:22;;;;;;;0.50;0.50;;;21.10;49.30;;;;;;4883557;29;20029;-74
2021/05/08 11:59:48;;;;;;;1.20;0.68;;;21.30;50.50;;;;;;4898385;29;20534;-73
2021/05/08 12:02:16;;;;;;;1.08;0.73;;;21.50;49.70;;;;;;4898603;29;20048;-74
2021/05/08 12:05:00;;;;;;;0.77;0.77;;;21.60;49.90;;;;;;4898087;29;20041;-73
2021/05/08 12:07:31;;;;;;;0.65;0.65;;;21.80;50.90;;;;;;4898262;29;20393;-73
2021/05/08 12:10:20;;;;;;;1.10;0.60;;;21.70;47.90;;;;;;4898260;29;20029;-73
2021/05/08 12:12:57;;;;;;;2.03;0.40;;;21.70;48.90;;;;;;4881243;29;20038;-74
2021/05/08 12:15:23;;;;;;;0.90;0.60;;;21.80;46.70;;;;;;4897924;29;20076;-74
2021/05/08 12:17:51;;;;;;;0.70;0.70;;;21.80;46.80;;;;;;4909402;29;20465;-73
2021/05/08 12:20:18;;;;;;;0.50;0.50;;;21.90;46.60;;;;;;4924911;29;20413;-78
2021/05/08 12:22:45;;;;;;;0.70;0.70;;;22.10;48.10;;;;;;4935938;29;20094;-78
2021/05/08 12:25:19;;;;;;;0.88;0.68;;;22.30;48.00;;;;;;4918978;29;20034;-78
2021/05/08 12:27:45;;;;;;;0.60;0.60;;;22.30;46.10;;;;;;4935790;29;20042;-78
2021/05/08 12:30:12;;;;;;;0.55;0.55;;;22.30;46.40;;;;;;4918912;29;20127;-78
2021/05/08 12:32:48;;;;;;;0.55;0.55;;;22.30;46.00;;;;;;4919005;29;20074;-77
2021/05/08 12:35:14;;;;;;;0.52;0.52;;;22.40;47.80;;;;;;4935732;29;20028;-78
2021/05/08 12:37:41;;;;;;;0.55;0.55;;;22.40;47.60;;;;;;4918776;29;20551;-77
2021/05/08 12:40:08;;;;;;;0.65;0.65;;;22.50;46.60;;;;;;4935714;29;20020;-77
2021/05/08 12:42:46;;;;;;;1.30;0.40;;;22.70;46.70;;;;;;4936044;29;20055;-76
2021/05/08 12:45:13;;;;;;;0.82;0.70;;;22.90;45.20;;;;;;4936041;29;20020;-77
2021/05/08 12:47:41;;;;;;;2.15;0.60;;;23.00;44.00;;;;;;4935623;29;20032;-77
2021/05/08 12:50:26;;;;;;;0.77;0.65;;;23.00;44.50;;;;;;4918138;29;20448;-77
2021/05/08 12:53:06;;;;;;;0.70;0.70;;;23.00;45.30;;;;;;4929769;29;20106;-77
2021/05/08 12:55:36;;;;;;;1.65;0.70;;;23.00;45.30;;;;;;4934802;29;20114;-77